sensor_id;sensor_type;location;lat;lon;timestamp;pressure;altitude;pressure_sealevel;temperature;humidity
39487;BME280;25173;50.430;18.926;2023-04-28T00:02:46;98657.44;;;10.48;50.64
39487;BME280;25173;50.430;18.926;2023-04-28T00:05:47;98658.78;;;10.46;50.60
39487;BME280;25173;50.430;18.926;2023-04-28T00:08:48;98666.41;;;10.44;50.80
39487;BME280;25173;50.430;18.926;2023-04-28T00:11:49;98659.59;;;10.46;50.85
39487;BME280;25173;50.430;18.926;2023-04-28T00:14:49;98659.31;;;10.43;50.89
39487;BME280;25173;50.430;18.926;2023-04-28T00:17:50;98647.25;;;10.34;51.00
39487;BME280;25173;50.430;18.926;2023-04-28T00:20:51;98652.13;;;10.32;51.42
39487;BME280;25173;50.430;18.926;2023-04-28T00:23:52;98652.13;;;10.32;51.42
39487;BME280;25173;50.430;18.926;2023-04-28T00:26:52;98653.50;;;10.29;51.52
39487;BME280;25173;50.430;18.926;2023-04-28T00:29:53;98649.66;;;10.30;51.41
39487;BME280;25173;50.430;18.926;2023-04-28T00:32:53;98653.78;;;10.33;51.49
39487;BME280;25173;50.430;18.926;2023-04-28T00:36:00;98647.00;;;10.35;51.68
39487;BME280;25173;50.430;18.926;2023-04-28T00:39:01;98648.34;;;10.33;51.40
39487;BME280;25173;50.430;18.926;2023-04-28T00:42:10;98652.34;;;10.25;51.56
39487;BME280;25173;50.430;18.926;2023-04-28T00:45:11;98649.06;;;10.23;51.41
39487;BME280;25173;50.430;18.926;2023-04-28T00:48:12;98650.69;;;10.19;51.61
39487;BME280;25173;50.430;18.926;2023-04-28T00:51:14;98645.72;;;10.16;51.74
39487;BME280;25173;50.430;18.926;2023-04-28T00:54:23;98654.16;;;10.15;51.80
39487;BME280;25173;50.430;18.926;2023-04-28T00:57:25;98657.69;;;10.15;52.02
39487;BME280;25173;50.430;18.926;2023-04-28T01:00:26;98647.94;;;10.19;52.01
39487;BME280;25173;50.430;18.926;2023-04-28T01:03:27;98650.09;;;10.17;52.01
39487;BME280;25173;50.430;18.926;2023-04-28T01:06:37;98658.72;;;10.09;52.42
39487;BME280;25173;50.430;18.926;2023-04-28T01:09:38;98657.03;;;10.03;52.34
39487;BME280;25173;50.430;18.926;2023-04-28T01:12:40;98654.31;;;10.03;52.50
39487;BME280;25173;50.430;18.926;2023-04-28T01:15:41;98661.06;;;10.00;52.32
39487;BME280;25173;50.430;18.926;2023-04-28T01:18:46;98659.13;;;9.96;52.38
39487;BME280;25173;50.430;18.926;2023-04-28T01:21:51;98657.41;;;9.85;52.69
39487;BME280;25173;50.430;18.926;2023-04-28T01:24:55;98650.78;;;9.76;52.54
39487;BME280;25173;50.430;18.926;2023-04-28T01:27:57;98651.00;;;9.69;52.65
39487;BME280;25173;50.430;18.926;2023-04-28T01:30:57;98647.94;;;9.65;52.61
39487;BME280;25173;50.430;18.926;2023-04-28T01:33:58;98643.28;;;9.61;52.61
39487;BME280;25173;50.430;18.926;2023-04-28T01:36:58;98639.19;;;9.58;52.42
39487;BME280;25173;50.430;18.926;2023-04-28T01:39:59;98638.16;;;9.64;52.33
39487;BME280;25173;50.430;18.926;2023-04-28T01:43:00;98641.47;;;9.71;52.13
39487;BME280;25173;50.430;18.926;2023-04-28T01:46:03;98647.28;;;9.80;51.91
39487;BME280;25173;50.430;18.926;2023-04-28T01:49:05;98644.06;;;9.83;51.94
39487;BME280;25173;50.430;18.926;2023-04-28T01:52:07;98640.72;;;9.76;52.05
39487;BME280;25173;50.430;18.926;2023-04-28T01:55:08;98649.09;;;9.69;51.80
39487;BME280;25173;50.430;18.926;2023-04-28T01:58:10;98648.03;;;9.70;51.79
39487;BME280;25173;50.430;18.926;2023-04-28T02:01:12;98647.50;;;9.73;51.85
39487;BME280;25173;50.430;18.926;2023-04-28T02:04:13;98655.66;;;9.73;51.60
39487;BME280;25173;50.430;18.926;2023-04-28T02:07:13;98641.28;;;9.78;51.27
39487;BME280;25173;50.430;18.926;2023-04-28T02:10:15;98642.41;;;9.82;50.98
39487;BME280;25173;50.430;18.926;2023-04-28T02:13:15;98640.56;;;9.88;50.90
39487;BME280;25173;50.430;18.926;2023-04-28T02:16:16;98638.69;;;9.93;50.65
39487;BME280;25173;50.430;18.926;2023-04-28T02:19:17;98637.91;;;9.93;50.59
39487;BME280;25173;50.430;18.926;2023-04-28T02:22:18;98640.34;;;9.94;50.40
39487;BME280;25173;50.430;18.926;2023-04-28T02:25:18;98644.44;;;9.92;50.39
39487;BME280;25173;50.430;18.926;2023-04-28T02:28:19;98641.09;;;9.85;50.57
39487;BME280;25173;50.430;18.926;2023-04-28T02:31:20;98632.81;;;9.74;50.82
39487;BME280;25173;50.430;18.926;2023-04-28T02:34:20;98631.13;;;9.68;51.10
39487;BME280;25173;50.430;18.926;2023-04-28T02:37:21;98625.59;;;9.58;51.35
39487;BME280;25173;50.430;18.926;2023-04-28T02:40:23;98621.88;;;9.43;51.71
39487;BME280;25173;50.430;18.926;2023-04-28T02:43:23;98617.66;;;9.30;51.77
39487;BME280;25173;50.430;18.926;2023-04-28T02:46:24;98620.78;;;9.17;51.71
39487;BME280;25173;50.430;18.926;2023-04-28T02:49:25;98627.69;;;9.03;52.01
39487;BME280;25173;50.430;18.926;2023-04-28T02:52:25;98629.66;;;8.90;52.16
39487;BME280;25173;50.430;18.926;2023-04-28T02:55:26;98622.13;;;8.76;52.33
39487;BME280;25173;50.430;18.926;2023-04-28T02:58:27;98621.03;;;8.55;52.41
39487;BME280;25173;50.430;18.926;2023-04-28T03:01:27;98627.06;;;8.40;52.62
39487;BME280;25173;50.430;18.926;2023-04-28T03:04:28;98629.13;;;8.33;52.63
39487;BME280;25173;50.430;18.926;2023-04-28T03:07:29;98623.25;;;8.25;52.88
39487;BME280;25173;50.430;18.926;2023-04-28T03:10:30;98630.09;;;8.10;52.80
39487;BME280;25173;50.430;18.926;2023-04-28T03:13:30;98622.88;;;7.99;52.86
39487;BME280;25173;50.430;18.926;2023-04-28T03:16:31;98623.28;;;7.91;52.88
39487;BME280;25173;50.430;18.926;2023-04-28T03:19:32;98626.47;;;7.88;53.05
39487;BME280;25173;50.430;18.926;2023-04-28T03:22:33;98624.00;;;7.87;53.04
39487;BME280;25173;50.430;18.926;2023-04-28T03:25:34;98616.13;;;7.85;53.04
39487;BME280;25173;50.430;18.926;2023-04-28T03:28:35;98617.75;;;7.86;52.92
39487;BME280;25173;50.430;18.926;2023-04-28T03:31:36;98614.78;;;7.88;53.02
39487;BME280;25173;50.430;18.926;2023-04-28T03:34:37;98624.09;;;7.92;53.01
39487;BME280;25173;50.430;18.926;2023-04-28T03:37:38;98616.28;;;7.95;52.85
39487;BME280;25173;50.430;18.926;2023-04-28T03:40:39;98619.06;;;8.00;52.92
39487;BME280;25173;50.430;18.926;2023-04-28T03:43:59;98620.41;;;7.98;52.62
39487;BME280;25173;50.430;18.926;2023-04-28T03:47:05;98622.44;;;7.91;52.33
39487;BME280;25173;50.430;18.926;2023-04-28T03:50:06;98619.91;;;7.84;52.53
39487;BME280;25173;50.430;18.926;2023-04-28T03:53:08;98623.09;;;7.81;52.66
39487;BME280;25173;50.430;18.926;2023-04-28T03:56:11;98622.50;;;7.79;52.94
39487;BME280;25173;50.430;18.926;2023-04-28T03:59:13;98625.47;;;7.77;53.04
39487;BME280;25173;50.430;18.926;2023-04-28T04:02:13;98628.91;;;7.73;53.24
39487;BME280;25173;50.430;18.926;2023-04-28T04:05:14;98630.81;;;7.72;53.47
39487;BME280;25173;50.430;18.926;2023-04-28T04:08:15;98628.91;;;7.73;53.72
39487;BME280;25173;50.430;18.926;2023-04-28T04:11:15;98632.78;;;7.77;53.83
39487;BME280;25173;50.430;18.926;2023-04-28T04:14:16;98634.00;;;7.86;53.69
39487;BME280;25173;50.430;18.926;2023-04-28T04:17:18;98634.53;;;8.00;53.78
39487;BME280;25173;50.430;18.926;2023-04-28T04:20:18;98635.28;;;8.12;53.68
39487;BME280;25173;50.430;18.926;2023-04-28T04:23:20;98645.56;;;8.27;53.46
39487;BME280;25173;50.430;18.926;2023-04-28T04:26:21;98642.78;;;8.38;53.59
39487;BME280;25173;50.430;18.926;2023-04-28T04:29:23;98648.38;;;8.48;53.60
39487;BME280;25173;50.430;18.926;2023-04-28T04:32:25;98647.75;;;8.63;53.52
39487;BME280;25173;50.430;18.926;2023-04-28T04:35:25;98642.56;;;8.78;53.49
39487;BME280;25173;50.430;18.926;2023-04-28T04:38:26;98640.03;;;8.93;53.31
39487;BME280;25173;50.430;18.926;2023-04-28T04:41:28;98644.59;;;9.10;53.25
39487;BME280;25173;50.430;18.926;2023-04-28T04:44:45;98644.28;;;9.28;53.15
39487;BME280;25173;50.430;18.926;2023-04-28T04:48:07;98644.53;;;9.48;52.88
39487;BME280;25173;50.430;18.926;2023-04-28T04:51:08;98643.91;;;9.68;52.79
39487;BME280;25173;50.430;18.926;2023-04-28T04:54:09;98640.81;;;9.86;52.94
39487;BME280;25173;50.430;18.926;2023-04-28T04:57:11;98647.78;;;10.04;52.84
39487;BME280;25173;50.430;18.926;2023-04-28T05:00:30;98637.06;;;10.19;52.70
39487;BME280;25173;50.430;18.926;2023-04-28T05:03:33;98642.63;;;10.34;52.49
39487;BME280;25173;50.430;18.926;2023-04-28T05:06:34;98647.63;;;10.47;52.28
39487;BME280;25173;50.430;18.926;2023-04-28T05:09:34;98639.56;;;10.63;52.38
39487;BME280;25173;50.430;18.926;2023-04-28T05:12:35;98638.25;;;10.75;52.21
39487;BME280;25173;50.430;18.926;2023-04-28T05:15:36;98637.00;;;10.93;52.06
39487;BME280;25173;50.430;18.926;2023-04-28T05:18:59;98643.38;;;11.14;52.19
39487;BME280;25173;50.430;18.926;2023-04-28T05:22:00;98644.03;;;11.41;51.74
39487;BME280;25173;50.430;18.926;2023-04-28T05:25:01;98641.13;;;11.68;51.25
39487;BME280;25173;50.430;18.926;2023-04-28T05:28:02;98625.38;;;11.90;50.21
39487;BME280;25173;50.430;18.926;2023-04-28T05:31:08;98631.38;;;12.13;49.89
39487;BME280;25173;50.430;18.926;2023-04-28T05:34:08;98629.22;;;12.30;49.37
39487;BME280;25173;50.430;18.926;2023-04-28T05:37:09;98631.09;;;12.50;49.31
39487;BME280;25173;50.430;18.926;2023-04-28T05:40:12;98629.41;;;12.69;48.67
39487;BME280;25173;50.430;18.926;2023-04-28T05:43:13;98632.13;;;12.89;48.77
39487;BME280;25173;50.430;18.926;2023-04-28T05:46:14;98636.16;;;13.07;48.86
39487;BME280;25173;50.430;18.926;2023-04-28T05:49:15;98627.63;;;13.29;47.63
39487;BME280;25173;50.430;18.926;2023-04-28T05:52:15;98625.13;;;13.37;47.36
39487;BME280;25173;50.430;18.926;2023-04-28T05:55:16;98637.06;;;13.56;46.98
39487;BME280;25173;50.430;18.926;2023-04-28T05:58:17;98631.78;;;13.75;47.13
39487;BME280;25173;50.430;18.926;2023-04-28T06:01:17;98629.47;;;13.92;47.08
39487;BME280;25173;50.430;18.926;2023-04-28T06:04:18;98623.59;;;14.09;46.59
39487;BME280;25173;50.430;18.926;2023-04-28T06:07:19;98626.50;;;14.23;46.34
39487;BME280;25173;50.430;18.926;2023-04-28T06:10:22;98628.09;;;14.29;45.75
39487;BME280;25173;50.430;18.926;2023-04-28T06:13:23;98625.28;;;14.39;46.13
39487;BME280;25173;50.430;18.926;2023-04-28T06:16:23;98626.09;;;14.45;45.37
39487;BME280;25173;50.430;18.926;2023-04-28T06:19:24;98622.66;;;14.58;45.40
39487;BME280;25173;50.430;18.926;2023-04-28T06:22:25;98623.38;;;14.68;45.03
39487;BME280;25173;50.430;18.926;2023-04-28T06:25:25;98624.66;;;14.76;44.43
39487;BME280;25173;50.430;18.926;2023-04-28T06:28:26;98623.81;;;14.81;44.19
39487;BME280;25173;50.430;18.926;2023-04-28T06:31:27;98622.38;;;14.88;44.49
39487;BME280;25173;50.430;18.926;2023-04-28T06:34:27;98621.72;;;14.96;44.63
39487;BME280;25173;50.430;18.926;2023-04-28T06:37:30;98620.56;;;15.02;44.12
39487;BME280;25173;50.430;18.926;2023-04-28T06:40:32;98616.66;;;15.08;43.69
39487;BME280;25173;50.430;18.926;2023-04-28T06:43:34;98618.22;;;15.14;43.64
39487;BME280;25173;50.430;18.926;2023-04-28T06:46:42;98629.91;;;15.25;43.58
39487;BME280;25173;50.430;18.926;2023-04-28T06:49:54;98622.41;;;15.31;43.45
39487;BME280;25173;50.430;18.926;2023-04-28T06:52:55;98610.72;;;15.44;43.71
39487;BME280;25173;50.430;18.926;2023-04-28T06:55:56;98614.69;;;15.57;43.29
39487;BME280;25173;50.430;18.926;2023-04-28T06:58:57;98615.13;;;15.64;42.83
39487;BME280;25173;50.430;18.926;2023-04-28T07:01:58;98610.84;;;15.76;42.66
39487;BME280;25173;50.430;18.926;2023-04-28T07:04:58;98609.56;;;15.87;42.56
39487;BME280;25173;50.430;18.926;2023-04-28T07:07:59;98599.34;;;15.93;42.39
39487;BME280;25173;50.430;18.926;2023-04-28T07:10:59;98613.88;;;15.93;42.27
39487;BME280;25173;50.430;18.926;2023-04-28T07:14:03;98598.81;;;15.91;41.59
39487;BME280;25173;50.430;18.926;2023-04-28T07:17:04;98599.41;;;15.88;41.70
39487;BME280;25173;50.430;18.926;2023-04-28T07:20:05;98601.28;;;15.93;41.45
39487;BME280;25173;50.430;18.926;2023-04-28T07:23:06;98595.41;;;15.99;41.62
39487;BME280;25173;50.430;18.926;2023-04-28T07:26:06;98600.06;;;15.99;41.11
39487;BME280;25173;50.430;18.926;2023-04-28T07:29:07;98596.66;;;15.88;41.31
39487;BME280;25173;50.430;18.926;2023-04-28T07:32:08;98597.47;;;15.88;40.67
39487;BME280;25173;50.430;18.926;2023-04-28T07:35:09;98596.28;;;15.95;41.44
39487;BME280;25173;50.430;18.926;2023-04-28T07:38:10;98599.56;;;15.97;41.38
39487;BME280;25173;50.430;18.926;2023-04-28T07:41:11;98591.16;;;15.88;40.21
39487;BME280;25173;50.430;18.926;2023-04-28T07:44:11;98586.28;;;15.85;40.41
39487;BME280;25173;50.430;18.926;2023-04-28T07:47:12;98586.34;;;15.80;39.94
39487;BME280;25173;50.430;18.926;2023-04-28T07:50:13;98582.84;;;15.74;39.85
39487;BME280;25173;50.430;18.926;2023-04-28T07:53:13;98584.50;;;15.75;39.37
39487;BME280;25173;50.430;18.926;2023-04-28T07:56:14;98578.63;;;15.82;40.07
39487;BME280;25173;50.430;18.926;2023-04-28T07:59:15;98581.22;;;15.92;39.80
39487;BME280;25173;50.430;18.926;2023-04-28T08:02:16;98578.69;;;15.96;39.94
39487;BME280;25173;50.430;18.926;2023-04-28T08:05:16;98569.84;;;15.99;39.15
39487;BME280;25173;50.430;18.926;2023-04-28T08:08:17;98581.56;;;16.04;38.93
39487;BME280;25173;50.430;18.926;2023-04-28T08:11:17;98580.22;;;16.02;38.33
39487;BME280;25173;50.430;18.926;2023-04-28T08:14:19;98575.34;;;15.99;38.42
39487;BME280;25173;50.430;18.926;2023-04-28T08:17:20;98570.97;;;15.98;37.68
39487;BME280;25173;50.430;18.926;2023-04-28T08:20:20;98573.19;;;15.96;38.03
39487;BME280;25173;50.430;18.926;2023-04-28T08:23:21;98565.69;;;16.01;37.90
39487;BME280;25173;50.430;18.926;2023-04-28T08:26:22;98568.66;;;16.05;38.33
39487;BME280;25173;50.430;18.926;2023-04-28T08:29:24;98559.03;;;16.21;38.16
39487;BME280;25173;50.430;18.926;2023-04-28T08:32:25;98555.22;;;16.36;37.60
39487;BME280;25173;50.430;18.926;2023-04-28T08:35:25;98553.56;;;16.35;37.48
39487;BME280;25173;50.430;18.926;2023-04-28T08:38:26;98545.63;;;16.33;36.63
39487;BME280;25173;50.430;18.926;2023-04-28T08:41:31;98548.66;;;16.31;36.27
39487;BME280;25173;50.430;18.926;2023-04-28T08:44:38;98549.19;;;16.34;35.85
39487;BME280;25173;50.430;18.926;2023-04-28T08:47:39;98544.81;;;16.33;36.56
39487;BME280;25173;50.430;18.926;2023-04-28T08:50:50;98541.47;;;16.36;36.42
39487;BME280;25173;50.430;18.926;2023-04-28T08:53:52;98540.56;;;16.40;36.52
39487;BME280;25173;50.430;18.926;2023-04-28T08:56:54;98534.22;;;16.40;35.80
39487;BME280;25173;50.430;18.926;2023-04-28T08:59:57;98534.47;;;16.43;35.93
39487;BME280;25173;50.430;18.926;2023-04-28T09:02:57;98532.31;;;16.54;35.90
39487;BME280;25173;50.430;18.926;2023-04-28T09:06:00;98534.47;;;16.57;35.51
39487;BME280;25173;50.430;18.926;2023-04-28T09:12:35;98521.34;;;16.67;34.70
39487;BME280;25173;50.430;18.926;2023-04-28T09:15:37;98523.81;;;16.83;35.76
39487;BME280;25173;50.430;18.926;2023-04-28T09:18:54;98519.03;;;16.88;35.01
39487;BME280;25173;50.430;18.926;2023-04-28T09:21:56;98516.78;;;16.90;35.80
39487;BME280;25173;50.430;18.926;2023-04-28T09:25:09;98516.06;;;16.98;35.91
39487;BME280;25173;50.430;18.926;2023-04-28T09:28:20;98516.97;;;17.07;34.57
39487;BME280;25173;50.430;18.926;2023-04-28T09:31:24;98514.09;;;17.13;35.69
39487;BME280;25173;50.430;18.926;2023-04-28T09:34:41;98516.03;;;17.26;35.54
39487;BME280;25173;50.430;18.926;2023-04-28T09:37:44;98513.84;;;17.36;35.59
39487;BME280;25173;50.430;18.926;2023-04-28T09:40:59;98511.22;;;17.31;33.85
39487;BME280;25173;50.430;18.926;2023-04-28T09:44:13;98501.03;;;17.32;33.58
39487;BME280;25173;50.430;18.926;2023-04-28T09:47:20;98491.66;;;17.33;34.02
39487;BME280;25173;50.430;18.926;2023-04-28T09:50:24;98492.03;;;17.40;34.80
39487;BME280;25173;50.430;18.926;2023-04-28T09:53:26;98491.69;;;17.41;34.79
39487;BME280;25173;50.430;18.926;2023-04-28T09:56:27;98485.84;;;17.57;35.34
39487;BME280;25173;50.430;18.926;2023-04-28T09:59:32;98473.28;;;17.87;34.90
39487;BME280;25173;50.430;18.926;2023-04-28T10:02:35;98467.09;;;18.03;34.12
39487;BME280;25173;50.430;18.926;2023-04-28T10:05:37;98475.16;;;18.22;34.16
39487;BME280;25173;50.430;18.926;2023-04-28T10:08:39;98459.78;;;18.38;33.73
39487;BME280;25173;50.430;18.926;2023-04-28T10:11:40;98463.59;;;18.51;33.75
39487;BME280;25173;50.430;18.926;2023-04-28T10:14:41;98454.94;;;18.66;33.26
39487;BME280;25173;50.430;18.926;2023-04-28T10:17:43;98459.22;;;18.89;33.62
39487;BME280;25173;50.430;18.926;2023-04-28T10:20:48;98452.44;;;19.04;33.50
39487;BME280;25173;50.430;18.926;2023-04-28T10:27:14;98460.09;;;19.33;33.51
39487;BME280;25173;50.430;18.926;2023-04-28T10:30:17;98443.38;;;19.47;32.79
39487;BME280;25173;50.430;18.926;2023-04-28T10:33:22;98436.06;;;19.76;32.43
39487;BME280;25173;50.430;18.926;2023-04-28T10:36:45;98436.19;;;19.89;31.05
39487;BME280;25173;50.430;18.926;2023-04-28T10:47:01;98421.22;;;19.98;31.31
39487;BME280;25173;50.430;18.926;2023-04-28T10:50:05;98410.53;;;20.26;32.64
39487;BME280;25173;50.430;18.926;2023-04-28T10:53:06;98405.56;;;20.58;32.79
39487;BME280;25173;50.430;18.926;2023-04-28T10:56:07;98401.97;;;20.86;32.36
39487;BME280;25173;50.430;18.926;2023-04-28T10:59:24;98397.56;;;20.85;30.06
39487;BME280;25173;50.430;18.926;2023-04-28T11:02:35;98395.59;;;20.65;31.14
39487;BME280;25173;50.430;18.926;2023-04-28T11:05:36;98391.38;;;20.59;32.08
39487;BME280;25173;50.430;18.926;2023-04-28T11:08:37;98398.19;;;20.62;31.53
39487;BME280;25173;50.430;18.926;2023-04-28T11:11:39;98397.25;;;20.58;31.63
39487;BME280;25173;50.430;18.926;2023-04-28T11:14:40;98386.06;;;20.45;30.82
39487;BME280;25173;50.430;18.926;2023-04-28T11:17:41;98380.03;;;20.52;31.17
39487;BME280;25173;50.430;18.926;2023-04-28T11:20:44;98373.41;;;20.44;30.82
39487;BME280;25173;50.430;18.926;2023-04-28T11:23:48;98361.34;;;20.40;31.21
39487;BME280;25173;50.430;18.926;2023-04-28T11:26:49;98374.72;;;20.38;30.90
39487;BME280;25173;50.430;18.926;2023-04-28T11:29:50;98367.72;;;20.41;30.69
39487;BME280;25173;50.430;18.926;2023-04-28T11:32:51;98358.34;;;20.54;31.13
39487;BME280;25173;50.430;18.926;2023-04-28T11:35:52;98366.81;;;20.58;31.02
39487;BME280;25173;50.430;18.926;2023-04-28T11:38:53;98357.50;;;20.62;31.37
39487;BME280;25173;50.430;18.926;2023-04-28T11:41:56;98357.19;;;20.84;30.96
39487;BME280;25173;50.430;18.926;2023-04-28T11:44:57;98357.13;;;21.14;31.81
39487;BME280;25173;50.430;18.926;2023-04-28T11:47:58;98355.34;;;21.51;31.23
39487;BME280;25173;50.430;18.926;2023-04-28T11:51:01;98345.25;;;21.79;31.43
39487;BME280;25173;50.430;18.926;2023-04-28T11:54:02;98349.59;;;22.01;29.84
39487;BME280;25173;50.430;18.926;2023-04-28T11:57:04;98351.16;;;22.35;30.11
39487;BME280;25173;50.430;18.926;2023-04-28T12:00:15;98358.91;;;22.66;28.79
39487;BME280;25173;50.430;18.926;2023-04-28T12:03:21;98359.84;;;22.82;28.71
39487;BME280;25173;50.430;18.926;2023-04-28T12:06:21;98343.94;;;22.82;28.49
39487;BME280;25173;50.430;18.926;2023-04-28T12:09:22;98345.56;;;22.83;28.67
39487;BME280;25173;50.430;18.926;2023-04-28T12:12:29;98335.50;;;22.91;28.55
39487;BME280;25173;50.430;18.926;2023-04-28T12:15:39;98330.88;;;22.83;28.75
39487;BME280;25173;50.430;18.926;2023-04-28T12:18:57;98330.88;;;22.95;28.64
39487;BME280;25173;50.430;18.926;2023-04-28T12:22:06;98322.19;;;22.97;28.66
39487;BME280;25173;50.430;18.926;2023-04-28T12:25:09;98316.72;;;23.00;28.64
39487;BME280;25173;50.430;18.926;2023-04-28T12:28:10;98318.56;;;23.36;28.47
39487;BME280;25173;50.430;18.926;2023-04-28T12:31:11;98322.72;;;23.70;28.14
39487;BME280;25173;50.430;18.926;2023-04-28T12:34:11;98313.13;;;23.99;27.93
39487;BME280;25173;50.430;18.926;2023-04-28T12:37:12;98298.06;;;24.31;27.90
39487;BME280;25173;50.430;18.926;2023-04-28T12:40:13;98292.88;;;24.65;28.21
39487;BME280;25173;50.430;18.926;2023-04-28T12:43:14;98291.22;;;24.80;27.55
39487;BME280;25173;50.430;18.926;2023-04-28T12:46:14;98289.56;;;25.13;27.52
39487;BME280;25173;50.430;18.926;2023-04-28T12:49:15;98281.63;;;25.54;27.01
39487;BME280;25173;50.430;18.926;2023-04-28T12:52:16;98290.72;;;25.70;26.72
39487;BME280;25173;50.430;18.926;2023-04-28T12:55:17;98289.25;;;25.76;26.55
39487;BME280;25173;50.430;18.926;2023-04-28T12:58:18;98279.44;;;25.63;25.63
39487;BME280;25173;50.430;18.926;2023-04-28T13:01:18;98266.69;;;25.24;26.58
39487;BME280;25173;50.430;18.926;2023-04-28T13:04:19;98272.91;;;24.98;25.98
39487;BME280;25173;50.430;18.926;2023-04-28T13:07:20;98268.03;;;25.10;26.72
39487;BME280;25173;50.430;18.926;2023-04-28T13:10:21;98266.47;;;25.32;26.72
39487;BME280;25173;50.430;18.926;2023-04-28T13:13:23;98267.19;;;25.29;26.37
39487;BME280;25173;50.430;18.926;2023-04-28T13:16:23;98257.03;;;25.60;26.35
39487;BME280;25173;50.430;18.926;2023-04-28T13:19:30;98252.16;;;25.99;25.99
39487;BME280;25173;50.430;18.926;2023-04-28T13:22:31;98251.50;;;26.32;26.10
39487;BME280;25173;50.430;18.926;2023-04-28T13:25:32;98248.31;;;26.33;25.45
39487;BME280;25173;50.430;18.926;2023-04-28T13:28:33;98241.56;;;26.34;25.40
39487;BME280;25173;50.430;18.926;2023-04-28T13:31:33;98258.81;;;26.66;25.23
39487;BME280;25173;50.430;18.926;2023-04-28T13:34:34;98238.97;;;26.75;25.28
39487;BME280;25173;50.430;18.926;2023-04-28T13:37:37;98234.13;;;26.72;25.95
39487;BME280;25173;50.430;18.926;2023-04-28T13:40:42;98236.38;;;26.62;26.12
39487;BME280;25173;50.430;18.926;2023-04-28T13:43:43;98227.47;;;26.83;25.42
39487;BME280;25173;50.430;18.926;2023-04-28T13:46:43;98231.56;;;27.19;25.24
39487;BME280;25173;50.430;18.926;2023-04-28T13:49:45;98217.19;;;27.58;25.22
39487;BME280;25173;50.430;18.926;2023-04-28T13:52:47;98205.09;;;27.94;25.04
39487;BME280;25173;50.430;18.926;2023-04-28T13:55:48;98214.84;;;28.11;25.57
39487;BME280;25173;50.430;18.926;2023-04-28T13:58:51;98207.03;;;28.31;25.04
39487;BME280;25173;50.430;18.926;2023-04-28T14:01:52;98210.38;;;28.61;24.38
39487;BME280;25173;50.430;18.926;2023-04-28T14:04:52;98202.38;;;28.60;23.82
39487;BME280;25173;50.430;18.926;2023-04-28T14:07:53;98196.03;;;28.73;23.64
39487;BME280;25173;50.430;18.926;2023-04-28T14:10:54;98196.91;;;28.84;23.73
39487;BME280;25173;50.430;18.926;2023-04-28T14:13:55;98194.56;;;28.90;22.88
39487;BME280;25173;50.430;18.926;2023-04-28T14:16:55;98200.94;;;28.90;23.33
39487;BME280;25173;50.430;18.926;2023-04-28T14:19:56;98191.34;;;28.99;23.69
39487;BME280;25173;50.430;18.926;2023-04-28T14:22:57;98187.41;;;29.10;23.60
39487;BME280;25173;50.430;18.926;2023-04-28T14:25:58;98183.38;;;29.08;23.19
39487;BME280;25173;50.430;18.926;2023-04-28T14:28:59;98184.06;;;28.76;23.17
39487;BME280;25173;50.430;18.926;2023-04-28T14:32:00;98183.38;;;28.28;23.49
39487;BME280;25173;50.430;18.926;2023-04-28T14:35:00;98183.13;;;27.96;23.71
39487;BME280;25173;50.430;18.926;2023-04-28T14:38:04;98178.59;;;27.81;23.54
39487;BME280;25173;50.430;18.926;2023-04-28T14:41:05;98182.25;;;27.41;23.77
39487;BME280;25173;50.430;18.926;2023-04-28T14:44:05;98192.50;;;26.93;23.66
39487;BME280;25173;50.430;18.926;2023-04-28T14:47:07;98185.16;;;26.51;24.22
39487;BME280;25173;50.430;18.926;2023-04-28T14:50:08;98191.91;;;26.24;24.66
39487;BME280;25173;50.430;18.926;2023-04-28T14:53:09;98174.03;;;26.02;24.58
39487;BME280;25173;50.430;18.926;2023-04-28T14:56:09;98174.41;;;25.74;24.44
39487;BME280;25173;50.430;18.926;2023-04-28T14:59:10;98176.44;;;25.55;25.50
39487;BME280;25173;50.430;18.926;2023-04-28T15:02:11;98170.41;;;25.52;25.73
39487;BME280;25173;50.430;18.926;2023-04-28T15:05:15;98176.13;;;25.82;25.52
39487;BME280;25173;50.430;18.926;2023-04-28T15:08:16;98173.25;;;26.28;25.04
39487;BME280;25173;50.430;18.926;2023-04-28T15:11:16;98173.00;;;26.70;24.58
39487;BME280;25173;50.430;18.926;2023-04-28T15:14:17;98170.63;;;27.02;24.70
39487;BME280;25173;50.430;18.926;2023-04-28T15:17:19;98158.25;;;27.40;24.45
39487;BME280;25173;50.430;18.926;2023-04-28T15:20:20;98156.66;;;27.42;24.16
39487;BME280;25173;50.430;18.926;2023-04-28T15:23:21;98163.28;;;27.24;23.94
39487;BME280;25173;50.430;18.926;2023-04-28T15:26:21;98161.44;;;27.01;24.29
39487;BME280;25173;50.430;18.926;2023-04-28T15:29:23;98162.25;;;26.72;23.94
39487;BME280;25173;50.430;18.926;2023-04-28T15:32:23;98152.59;;;26.10;24.02
39487;BME280;25173;50.430;18.926;2023-04-28T15:35:24;98151.22;;;25.70;24.57
39487;BME280;25173;50.430;18.926;2023-04-28T15:38:25;98152.06;;;25.29;25.79
39487;BME280;25173;50.430;18.926;2023-04-28T15:41:28;98145.16;;;25.19;25.39
39487;BME280;25173;50.430;18.926;2023-04-28T15:44:28;98138.06;;;25.02;25.22
39487;BME280;25173;50.430;18.926;2023-04-28T15:47:29;98140.63;;;24.92;25.38
39487;BME280;25173;50.430;18.926;2023-04-28T15:50:30;98133.94;;;24.77;25.24
39487;BME280;25173;50.430;18.926;2023-04-28T15:53:31;98134.84;;;24.62;25.20
39487;BME280;25173;50.430;18.926;2023-04-28T15:56:32;98122.75;;;24.54;26.03
39487;BME280;25173;50.430;18.926;2023-04-28T15:59:33;98118.50;;;24.41;26.29
39487;BME280;25173;50.430;18.926;2023-04-28T16:02:36;98121.94;;;24.34;25.92
39487;BME280;25173;50.430;18.926;2023-04-28T16:05:37;98120.91;;;24.23;25.94
39487;BME280;25173;50.430;18.926;2023-04-28T16:08:38;98118.19;;;24.27;25.61
39487;BME280;25173;50.430;18.926;2023-04-28T16:11:38;98122.59;;;24.28;25.68